Time;durP1;ratioP1;P1;durP2;ratioP2;P2;SDS_P1;SDS_P2;PMS_P1;PMS_P2;Temp;Humidity;BMP_temperature;BMP_pressure;BME280_temperature;BME280_humidity;BME280_pressure;Samples;Min_cycle;Max_cycle;Signal;HPM_P1;HPM_P2
2021/11/24 00:00:23;;;;;;;10.50;5.23;;;;;;;;;;5079770;28;20470;-72
2021/11/24 00:02:51;;;;;;;9.37;5.63;;;;;;;;;;5073377;28;20461;-74
2021/11/24 00:05:19;;;;;;;9.37;5.60;;;;;;;;;;5065898;28;20999;-73
2021/11/24 00:07:47;;;;;;;9.73;6.17;;;;;;;;;;5069784;28;20904;-73
2021/11/24 00:10:16;;;;;;;10.60;5.83;;;;;;;;;;5065574;28;20514;-73
2021/11/24 00:12:48;;;;;;;5.67;4.70;;;;;;;;;;5066185;28;20445;-71
2021/11/24 00:15:21;;;;;;;14.10;5.97;;;;;;;;;;5058132;28;20551;-73
2021/11/24 00:17:53;;;;;;;8.70;5.90;;;;;;;;;;5058994;28;20543;-71
2021/11/24 00:20:22;;;;;;;12.17;4.93;;;;;;;;;;5072930;28;20469;-73
2021/11/24 00:22:49;;;;;;;9.73;7.07;;;;;;;;;;5059604;28;20481;-73
2021/11/24 00:25:44;;;;;;;10.60;5.80;;;;;;;;;;5059213;28;20480;-73
2021/11/24 00:28:21;;;;;;;10.90;6.00;;;;;;;;;;5058652;28;20468;-73
2021/11/24 00:30:50;;;;;;;10.77;6.60;;;;;;;;;;5078396;28;20759;-73
2021/11/24 00:33:20;;;;;;;10.90;7.20;;;;;;;;;;5072306;28;20457;-72
2021/11/24 00:35:48;;;;;;;15.83;8.53;;;;;;;;;;5061441;28;20500;-72
2021/11/24 00:38:16;;;;;;;10.50;7.50;;;;;;;;;;5059822;28;20552;-72
2021/11/24 00:40:44;;;;;;;14.73;8.67;;;;;;;;;;5073273;28;20448;-72
2021/11/24 00:43:14;;;;;;;11.73;8.60;;;;;;;;;;5078129;28;20457;-72
2021/11/24 00:45:45;;;;;;;16.23;7.47;;;;;;;;;;5060347;28;20457;-72
2021/11/24 00:48:12;;;;;;;12.80;8.27;;;;;;;;;;5058504;28;20905;-73
2021/11/24 00:50:41;;;;;;;10.97;7.50;;;;;;;;;;5059088;28;20544;-73
2021/11/24 00:53:11;;;;;;;17.93;9.80;;;;;;;;;;5061217;28;20497;-72
2021/11/24 00:55:48;;;;;;;13.07;9.57;;;;;;;;;;5068179;28;20484;-72
2021/11/24 00:58:19;;;;;;;15.70;8.27;;;;;;;;;;5073311;28;20562;-72
2021/11/24 01:00:49;;;;;;;16.63;8.87;;;;;;;;;;5063049;28;20488;-72
2021/11/24 01:03:28;;;;;;;;;;;;;;;;;;;;;
2021/11/24 01:05:58;;;;;;;11.13;7.07;;;;;;;;;;5075176;28;20470;-75
2021/11/24 01:08:27;;;;;;;13.63;7.60;;;;;;;;;;5066866;28;20463;-73
2021/11/24 01:10:55;;;;;;;10.50;8.23;;;;;;;;;;5069044;28;20457;-73
2021/11/24 01:13:26;;;;;;;15.37;8.33;;;;;;;;;;5064066;28;20453;-72
2021/11/24 01:15:55;;;;;;;18.33;9.30;;;;;;;;;;5068388;28;20484;-72
2021/11/24 01:18:25;;;;;;;16.23;10.17;;;;;;;;;;5076594;28;20456;-72
2021/11/24 01:20:53;;;;;;;12.30;8.00;;;;;;;;;;5078505;28;20477;-72
2021/11/24 01:23:21;;;;;;;19.83;9.73;;;;;;;;;;5077257;28;20456;-72
2021/11/24 01:25:49;;;;;;;14.10;10.00;;;;;;;;;;5077470;28;20461;-73
2021/11/24 01:28:19;;;;;;;13.50;9.43;;;;;;;;;;5078168;28;20460;-72
2021/11/24 01:30:50;;;;;;;13.87;9.40;;;;;;;;;;5073148;28;20929;-73
2021/11/24 01:33:19;;;;;;;18.37;9.40;;;;;;;;;;5062922;28;20873;-72
2021/11/24 01:35:47;;;;;;;13.70;9.60;;;;;;;;;;5068399;28;20489;-72
2021/11/24 01:38:15;;;;;;;15.07;9.10;;;;;;;;;;5057793;28;20526;-72
2021/11/24 01:40:42;;;;;;;15.23;8.97;;;;;;;;;;5071490;28;20458;-72
2021/11/24 01:43:15;;;;;;;12.60;8.83;;;;;;;;;;5064277;28;20457;-73
2021/11/24 01:45:43;;;;;;;13.03;8.90;;;;;;;;;;5076850;28;20590;-73
2021/11/24 01:48:11;;;;;;;14.87;10.17;;;;;;;;;;5077570;28;20463;-72
2021/11/24 01:50:40;;;;;;;18.23;9.53;;;;;;;;;;5077414;28;20479;-72
2021/11/24 01:53:09;;;;;;;17.47;9.40;;;;;;;;;;5066402;28;20556;-72
2021/11/24 01:55:37;;;;;;;14.60;9.40;;;;;;;;;;5059956;28;20477;-72
2021/11/24 01:58:06;;;;;;;17.80;9.57;;;;;;;;;;5057524;28;20468;-73
2021/11/24 02:00:37;;;;;;;12.80;8.90;;;;;;;;;;5065913;28;20461;-72
2021/11/24 02:03:06;;;;;;;15.73;9.00;;;;;;;;;;5068707;28;20872;-72
2021/11/24 02:05:34;;;;;;;14.03;8.50;;;;;;;;;;5057627;28;20549;-72
2021/11/24 02:08:05;;;;;;;17.33;8.80;;;;;;;;;;5057883;28;20477;-72
2021/11/24 02:10:36;;;;;;;11.87;8.97;;;;;;;;;;5057771;28;20457;-72
2021/11/24 02:13:07;;;;;;;13.33;9.67;;;;;;;;;;5059911;28;20707;-72
2021/11/24 02:15:35;;;;;;;11.13;8.03;;;;;;;;;;5076686;28;20476;-72
2021/11/24 02:18:04;;;;;;;12.53;8.53;;;;;;;;;;5074794;28;20456;-71
2021/11/24 02:20:42;;;;;;;11.20;6.50;;;;;;;;;;5077653;28;20492;-73
2021/11/24 02:23:13;;;;;;;12.53;8.87;;;;;;;;;;5062613;28;20865;-72
2021/11/24 02:25:43;;;;;;;10.70;7.60;;;;;;;;;;5056781;28;20496;-72
2021/11/24 02:28:14;;;;;;;14.53;7.50;;;;;;;;;;5066858;28;20453;-72
2021/11/24 02:30:42;;;;;;;13.10;8.10;;;;;;;;;;5057813;28;20544;-71
2021/11/24 02:33:13;;;;;;;12.37;8.63;;;;;;;;;;5057125;28;20453;-71
2021/11/24 02:35:44;;;;;;;17.93;8.40;;;;;;;;;;5067727;28;20492;-71
2021/11/24 02:38:13;;;;;;;13.43;8.60;;;;;;;;;;5058037;28;20480;-72
2021/11/24 02:40:41;;;;;;;10.17;7.30;;;;;;;;;;5062910;28;20487;-72
2021/11/24 02:43:10;;;;;;;11.80;7.87;;;;;;;;;;5074904;28;20463;-72
2021/11/24 02:45:39;;;;;;;11.83;7.20;;;;;;;;;;5075278;28;20468;-72
2021/11/24 02:48:07;;;;;;;12.00;7.00;;;;;;;;;;5077107;28;20468;-72
2021/11/24 02:50:35;;;;;;;11.27;7.20;;;;;;;;;;5077801;28;20475;-73
2021/11/24 02:53:05;;;;;;;12.30;7.50;;;;;;;;;;5063341;28;20523;-72
2021/11/24 02:55:33;;;;;;;13.77;7.53;;;;;;;;;;5062061;28;20468;-73
2021/11/24 02:58:01;;;;;;;11.27;8.57;;;;;;;;;;5077487;28;20510;-73
2021/11/24 03:00:32;;;;;;;10.87;7.40;;;;;;;;;;5077901;28;20464;-73
2021/11/24 03:02:59;;;;;;;10.87;8.27;;;;;;;;;;5066721;28;20485;-73
2021/11/24 03:05:29;;;;;;;11.10;6.60;;;;;;;;;;5064916;28;20486;-72
2021/11/24 03:08:00;;;;;;;11.80;7.47;;;;;;;;;;5059916;28;20450;-72
2021/11/24 03:10:30;;;;;;;11.90;6.80;;;;;;;;;;5066464;28;20479;-73
2021/11/24 03:12:57;;;;;;;13.60;7.47;;;;;;;;;;5067631;28;20484;-73
2021/11/24 03:15:25;;;;;;;11.07;7.67;;;;;;;;;;5069489;28;20480;-72
2021/11/24 03:17:53;;;;;;;11.43;7.10;;;;;;;;;;5076960;28;20463;-72
2021/11/24 03:20:24;;;;;;;13.03;7.70;;;;;;;;;;5080245;28;20539;-72
2021/11/24 03:22:52;;;;;;;9.70;6.00;;;;;;;;;;5079727;28;20488;-72
2021/11/24 03:25:20;;;;;;;17.03;9.63;;;;;;;;;;5080729;28;20484;-72
2021/11/24 03:27:49;;;;;;;13.00;7.97;;;;;;;;;;5074922;28;20449;-72
2021/11/24 03:30:21;;;;;;;12.00;8.60;;;;;;;;;;5080713;28;20504;-72
2021/11/24 03:32:50;;;;;;;16.40;6.23;;;;;;;;;;5074697;28;20721;-71
2021/11/24 03:35:18;;;;;;;12.63;7.73;;;;;;;;;;5060150;28;20476;-71
2021/11/24 03:37:51;;;;;;;11.27;7.90;;;;;;;;;;5059862;28;20479;-71
2021/11/24 03:40:18;;;;;;;17.30;8.50;;;;;;;;;;5064230;28;20467;-71
2021/11/24 03:42:47;;;;;;;12.97;8.27;;;;;;;;;;5080316;28;20798;-72
2021/11/24 03:45:17;;;;;;;13.30;9.17;;;;;;;;;;5079442;28;20500;-72
2021/11/24 03:47:45;;;;;;;13.80;7.97;;;;;;;;;;5079396;28;20484;-73
2021/11/24 03:50:14;;;;;;;13.67;9.00;;;;;;;;;;5080699;28;20597;-72
2021/11/24 03:52:41;;;;;;;9.80;6.53;;;;;;;;;;5069141;28;20465;-72
2021/11/24 03:55:10;;;;;;;11.77;8.13;;;;;;;;;;5080691;28;20456;-72
2021/11/24 03:57:41;;;;;;;19.17;8.20;;;;;;;;;;5072749;28;20463;-73
2021/11/24 04:00:10;;;;;;;12.47;7.10;;;;;;;;;;5060362;28;20526;-73
2021/11/24 04:02:40;;;;;;;12.93;7.60;;;;;;;;;;5060476;28;20453;-72
2021/11/24 04:05:09;;;;;;;9.03;5.93;;;;;;;;;;5058405;28;20476;-72
2021/11/24 04:07:39;;;;;;;13.07;7.60;;;;;;;;;;5077315;28;20471;-72
2021/11/24 04:10:08;;;;;;;12.87;7.70;;;;;;;;;;5079124;28;20468;-73
2021/11/24 04:12:37;;;;;;;11.90;7.40;;;;;;;;;;5078920;28;20763;-73
2021/11/24 04:15:05;;;;;;;8.80;6.73;;;;;;;;;;5079106;28;20731;-72
2021/11/24 04:17:33;;;;;;;19.57;9.00;;;;;;;;;;5072448;28;20568;-72
2021/11/24 04:20:02;;;;;;;14.73;9.03;;;;;;;;;;5059323;28;20497;-73
2021/11/24 04:22:30;;;;;;;10.87;8.20;;;;;;;;;;5063869;28;20461;-72
2021/11/24 04:24:58;;;;;;;9.50;6.40;;;;;;;;;;5073661;28;20543;-72
2021/11/24 04:27:26;;;;;;;10.77;7.40;;;;;;;;;;5078550;28;20492;-72
2021/11/24 04:29:53;;;;;;;13.93;6.90;;;;;;;;;;5071136;28;20496;-71
2021/11/24 04:32:21;;;;;;;10.20;6.53;;;;;;;;;;5057367;28;20826;-73
2021/11/24 04:34:49;;;;;;;9.80;7.13;;;;;;;;;;5065025;28;20470;-73
2021/11/24 04:37:18;;;;;;;11.77;7.63;;;;;;;;;;5058497;28;20554;-72
2021/11/24 04:39:45;;;;;;;11.80;6.87;;;;;;;;;;5071834;28;20547;-72
2021/11/24 04:42:13;;;;;;;11.10;6.70;;;;;;;;;;5063891;28;20488;-72
2021/11/24 04:44:41;;;;;;;9.07;6.20;;;;;;;;;;5057975;28;20981;-72
2021/11/24 04:47:09;;;;;;;14.87;6.80;;;;;;;;;;5059835;28;20524;-72
2021/11/24 04:49:38;;;;;;;11.80;7.47;;;;;;;;;;5057996;28;20784;-72
2021/11/24 04:52:07;;;;;;;8.57;6.60;;;;;;;;;;5064963;28;20951;-72
2021/11/24 04:54:36;;;;;;;12.27;6.83;;;;;;;;;;5058149;28;20461;-72
2021/11/24 04:57:04;;;;;;;10.17;5.63;;;;;;;;;;5060212;28;20489;-73
2021/11/24 04:59:42;;;;;;;9.20;5.50;;;;;;;;;;5077560;28;20734;-71
2021/11/24 05:02:10;;;;;;;8.07;5.60;;;;;;;;;;5078008;28;20465;-72
2021/11/24 05:04:37;;;;;;;12.10;6.67;;;;;;;;;;5078485;28;20451;-72
2021/11/24 05:07:05;;;;;;;10.20;7.23;;;;;;;;;;5075939;28;20523;-72
2021/11/24 05:09:33;;;;;;;12.57;9.10;;;;;;;;;;5075585;28;20488;-72
2021/11/24 05:12:03;;;;;;;10.10;7.00;;;;;;;;;;5062079;28;20471;-72
2021/11/24 05:14:34;;;;;;;14.13;8.20;;;;;;;;;;5059212;28;20488;-72
2021/11/24 05:17:04;;;;;;;15.70;8.83;;;;;;;;;;5065502;28;20488;-72
2021/11/24 05:19:35;;;;;;;15.70;8.00;;;;;;;;;;5057309;28;20469;-72
2021/11/24 05:22:04;;;;;;;13.77;7.80;;;;;;;;;;5058217;28;21126;-72
2021/11/24 05:24:32;;;;;;;12.03;8.27;;;;;;;;;;5075965;28;20473;-72
2021/11/24 05:27:00;;;;;;;13.87;9.57;;;;;;;;;;5078180;28;20487;-72
2021/11/24 05:29:29;;;;;;;17.47;8.57;;;;;;;;;;5065904;28;21024;-72
2021/11/24 05:31:57;;;;;;;11.80;8.60;;;;;;;;;;5072665;28;20502;-72
2021/11/24 05:34:25;;;;;;;13.77;8.60;;;;;;;;;;5070821;28;20741;-72
2021/11/24 05:36:53;;;;;;;11.40;7.23;;;;;;;;;;5076622;28;20499;-70
2021/11/24 05:39:21;;;;;;;13.00;8.53;;;;;;;;;;5060225;28;20450;-70
2021/11/24 05:41:50;;;;;;;14.90;8.93;;;;;;;;;;5055577;28;20533;-70
2021/11/24 05:44:21;;;;;;;14.13;9.00;;;;;;;;;;5067396;28;20460;-71
2021/11/24 05:46:52;;;;;;;13.37;10.17;;;;;;;;;;5076847;28;20487;-72
2021/11/24 05:49:20;;;;;;;12.80;8.07;;;;;;;;;;5077486;28;20491;-72
2021/11/24 05:51:48;;;;;;;15.53;10.80;;;;;;;;;;5072502;28;20450;-72
2021/11/24 05:54:16;;;;;;;13.77;7.40;;;;;;;;;;5064308;28;20460;-72
2021/11/24 05:56:45;;;;;;;16.67;9.20;;;;;;;;;;5057211;28;20477;-72
2021/11/24 05:59:14;;;;;;;13.10;8.17;;;;;;;;;;5076284;28;20468;-71
2021/11/24 06:01:42;;;;;;;10.60;7.73;;;;;;;;;;5066045;28;20481;-72
2021/11/24 06:04:11;;;;;;;13.93;9.07;;;;;;;;;;5056234;28;20461;-72
2021/11/24 06:06:39;;;;;;;11.27;7.73;;;;;;;;;;5056396;28;20458;-70
2021/11/24 06:09:07;;;;;;;14.67;9.53;;;;;;;;;;5055013;28;20819;-72
2021/11/24 06:11:35;;;;;;;13.53;7.80;;;;;;;;;;5055249;28;20464;-72
2021/11/24 06:14:03;;;;;;;12.07;7.93;;;;;;;;;;5055593;28;20488;-72
2021/11/24 06:16:31;;;;;;;11.17;7.40;;;;;;;;;;5068022;28;20516;-72
2021/11/24 06:18:59;;;;;;;11.43;7.50;;;;;;;;;;5076886;28;20455;-72
2021/11/24 06:21:29;;;;;;;11.77;6.93;;;;;;;;;;5071549;28;20462;-72
2021/11/24 06:23:57;;;;;;;13.67;9.07;;;;;;;;;;5066547;28;20454;-73
2021/11/24 06:26:25;;;;;;;11.10;7.83;;;;;;;;;;5055111;28;20453;-72
2021/11/24 06:28:53;;;;;;;16.27;9.17;;;;;;;;;;5055441;28;20551;-72
2021/11/24 06:31:22;;;;;;;12.70;7.40;;;;;;;;;;5053976;28;20453;-72
2021/11/24 06:33:51;;;;;;;19.67;11.23;;;;;;;;;;5069267;28;20441;-72
2021/11/24 06:36:24;;;;;;;11.90;9.53;;;;;;;;;;5055432;28;20453;-73
2021/11/24 06:38:53;;;;;;;13.40;8.77;;;;;;;;;;5058530;28;20614;-72
2021/11/24 06:41:23;;;;;;;13.10;8.40;;;;;;;;;;5058811;28;20480;-72
2021/11/24 06:43:51;;;;;;;16.40;10.00;;;;;;;;;;5060125;28;20461;-72
2021/11/24 06:46:18;;;;;;;12.30;7.53;;;;;;;;;;5053946;28;20453;-72
2021/11/24 06:48:46;;;;;;;13.40;8.23;;;;;;;;;;5070625;28;20560;-72
2021/11/24 06:51:15;;;;;;;16.63;10.07;;;;;;;;;;5072375;28;20469;-72
2021/11/24 06:53:46;;;;;;;19.30;12.00;;;;;;;;;;5057028;28;20454;-73
2021/11/24 06:56:16;;;;;;;15.90;10.60;;;;;;;;;;5066708;28;20610;-72
2021/11/24 06:58:44;;;;;;;16.07;8.40;;;;;;;;;;5069591;28;20464;-72
2021/11/24 07:01:17;;;;;;;16.23;8.27;;;;;;;;;;5078167;28;20557;-72
2021/11/24 07:03:46;;;;;;;19.70;8.40;;;;;;;;;;5076154;28;20448;-73
2021/11/24 07:06:19;;;;;;;18.80;12.60;;;;;;;;;;5073966;28;20455;-73
2021/11/24 07:08:54;;;;;;;14.93;10.33;;;;;;;;;;5063842;28;20468;-71
2021/11/24 07:11:36;;;;;;;13.40;10.07;;;;;;;;;;5075029;28;20483;-71
2021/11/24 07:14:11;;;;;;;18.13;11.70;;;;;;;;;;5077484;28;20463;-71
2021/11/24 07:16:44;;;;;;;19.17;10.00;;;;;;;;;;5074600;28;21090;-71
2021/11/24 07:19:21;;;;;;;16.83;10.27;;;;;;;;;;5056526;28;20460;-71
2021/11/24 07:21:49;;;;;;;23.83;13.23;;;;;;;;;;5057318;28;20510;-72
2021/11/24 07:24:16;;;;;;;15.27;9.23;;;;;;;;;;5057876;28;20512;-71
2021/11/24 07:26:46;;;;;;;15.97;10.40;;;;;;;;;;5058537;28;20501;-72
2021/11/24 07:29:14;;;;;;;18.87;10.50;;;;;;;;;;5066355;28;20527;-72
2021/11/24 07:31:50;;;;;;;19.13;11.17;;;;;;;;;;5070314;28;20534;-72
2021/11/24 07:34:22;;;;;;;16.20;9.70;;;;;;;;;;5073196;28;20468;-72
2021/11/24 07:36:51;;;;;;;18.63;10.87;;;;;;;;;;5077344;28;20531;-71
2021/11/24 07:39:19;;;;;;;23.00;9.87;;;;;;;;;;5077943;28;20561;-73
2021/11/24 07:41:48;;;;;;;17.90;11.20;;;;;;;;;;5077420;28;20452;-72
2021/11/24 07:44:19;;;;;;;17.67;11.00;;;;;;;;;;5073197;28;20465;-71
2021/11/24 07:46:55;;;;;;;14.77;8.70;;;;;;;;;;5064464;28;20504;-71
2021/11/24 07:49:26;;;;;;;17.57;9.30;;;;;;;;;;5058434;28;20815;-71
2021/11/24 07:51:54;;;;;;;20.13;10.60;;;;;;;;;;5071532;28;20730;-71
2021/11/24 07:54:23;;;;;;;15.90;9.67;;;;;;;;;;5072907;28;20928;-71
2021/11/24 07:56:53;;;;;;;14.50;8.10;;;;;;;;;;5058718;28;20485;-71
2021/11/24 07:59:24;;;;;;;14.90;9.37;;;;;;;;;;5063335;28;20474;-71
2021/11/24 08:01:52;;;;;;;15.33;9.10;;;;;;;;;;5077516;28;20467;-71
2021/11/24 08:04:27;;;;;;;16.90;10.57;;;;;;;;;;5077633;28;20468;-71
2021/11/24 08:07:00;;;;;;;22.63;10.43;;;;;;;;;;5060071;28;20453;-71
2021/11/24 08:09:28;;;;;;;18.63;8.87;;;;;;;;;;5057894;28;20528;-72
2021/11/24 08:11:58;;;;;;;15.67;9.70;;;;;;;;;;5058305;28;20477;-72
2021/11/24 08:14:28;;;;;;;16.50;9.60;;;;;;;;;;5071931;28;20483;-72
2021/11/24 08:17:04;;;;;;;18.63;9.03;;;;;;;;;;5078118;28;20987;-72
2021/11/24 08:19:35;;;;;;;15.20;8.53;;;;;;;;;;5076403;28;20471;-72
2021/11/24 08:22:03;;;;;;;14.40;8.47;;;;;;;;;;5061420;28;20458;-72
2021/11/24 08:24:30;;;;;;;15.40;10.67;;;;;;;;;;5058190;28;20458;-72
2021/11/24 08:27:02;;;;;;;15.37;9.70;;;;;;;;;;5059268;28;20874;-73
2021/11/24 08:29:31;;;;;;;16.80;7.60;;;;;;;;;;5076554;28;20471;-73
2021/11/24 08:31:59;;;;;;;11.50;8.40;;;;;;;;;;5077094;28;20732;-72
2021/11/24 08:37:18;;;;;;;12.90;8.90;;;;;;;;;;5066112;28;20572;-72
2021/11/24 08:39:48;;;;;;;13.30;7.73;;;;;;;;;;5072880;28;20456;-73
2021/11/24 08:42:21;;;;;;;14.23;9.07;;;;;;;;;;5077083;28;20546;-72
2021/11/24 08:44:49;;;;;;;12.90;8.53;;;;;;;;;;5061643;28;20453;-71
2021/11/24 08:47:20;;;;;;;15.30;10.07;;;;;;;;;;5057056;28;20461;-72
2021/11/24 08:49:49;;;;;;;15.27;9.20;;;;;;;;;;5061468;28;20466;-73
2021/11/24 08:52:17;;;;;;;16.73;9.50;;;;;;;;;;5058331;28;20491;-72
2021/11/24 08:54:53;;;;;;;10.73;7.70;;;;;;;;;;5056594;28;20466;-72
2021/11/24 08:57:26;;;;;;;15.07;8.77;;;;;;;;;;5066944;28;20504;-71
2021/11/24 09:00:04;;;;;;;17.47;11.20;;;;;;;;;;5076174;28;20551;-73
2021/11/24 09:03:05;;;;;;;19.27;9.23;;;;;;;;;;5066662;28;20573;-73
2021/11/24 09:05:36;;;;;;;11.67;7.67;;;;;;;;;;5064033;28;20927;-71
2021/11/24 09:08:09;;;;;;;14.33;9.10;;;;;;;;;;5068290;28;20461;-72
2021/11/24 09:10:45;;;;;;;15.10;9.13;;;;;;;;;;5078418;28;20486;-71
2021/11/24 09:13:19;;;;;;;18.73;9.00;;;;;;;;;;5076754;28;20447;-72
2021/11/24 09:15:57;;;;;;;15.90;11.20;;;;;;;;;;5075500;28;20464;-72
2021/11/24 09:18:32;;;;;;;8.60;4.87;;;;;;;;;;5077613;28;20572;-72
2021/11/24 09:21:02;;;;;;;15.17;10.07;;;;;;;;;;5062867;28;20461;-71
2021/11/24 09:23:35;;;;;;;15.00;8.70;;;;;;;;;;5072519;28;20469;-71
2021/11/24 09:26:14;;;;;;;12.87;8.97;;;;;;;;;;5066641;28;20453;-72
2021/11/24 09:28:53;;;;;;;16.53;10.03;;;;;;;;;;5059473;28;20456;-71
2021/11/24 09:31:26;;;;;;;19.40;12.50;;;;;;;;;;5058318;28;20769;-70
2021/11/24 09:33:59;;;;;;;17.77;10.53;;;;;;;;;;5058871;28;20445;-72
2021/11/24 09:36:41;;;;;;;17.57;8.50;;;;;;;;;;5055522;28;20538;-72
2021/11/24 09:39:23;;;;;;;12.67;8.43;;;;;;;;;;5065675;28;20902;-72
2021/11/24 09:41:53;;;;;;;14.20;8.87;;;;;;;;;;5056945;28;20841;-73
2021/11/24 09:44:23;;;;;;;17.57;10.70;;;;;;;;;;5073225;28;20472;-72
2021/11/24 09:46:52;;;;;;;16.23;9.17;;;;;;;;;;5060784;28;20453;-72
2021/11/24 09:49:20;;;;;;;15.60;9.30;;;;;;;;;;5056488;28;20465;-72
2021/11/24 09:51:52;;;;;;;14.33;9.67;;;;;;;;;;5066793;28;20481;-73
2021/11/24 09:54:20;;;;;;;14.90;9.57;;;;;;;;;;5067558;28;20760;-72
2021/11/24 09:56:49;;;;;;;12.83;6.90;;;;;;;;;;5075776;28;20452;-73
2021/11/24 09:59:17;;;;;;;17.83;9.67;;;;;;;;;;5070023;28;20516;-72
2021/11/24 10:01:53;;;;;;;12.80;8.40;;;;;;;;;;5066870;28;20476;-72
2021/11/24 10:04:23;;;;;;;15.77;9.37;;;;;;;;;;5075309;28;20881;-71
2021/11/24 10:06:52;;;;;;;13.97;8.53;;;;;;;;;;5063685;28;20543;-71
2021/11/24 10:09:53;;;;;;;12.60;6.83;;;;;;;;;;5068213;28;20914;-71
2021/11/24 10:12:24;;;;;;;15.07;9.20;;;;;;;;;;5054691;28;20465;-71
2021/11/24 10:15:24;;;;;;;16.67;8.50;;;;;;;;;;5064788;28;20484;-71
2021/11/24 10:18:14;;;;;;;10.60;6.40;;;;;;;;;;5055952;28;20484;-71
2021/11/24 10:20:46;;;;;;;14.80;8.97;;;;;;;;;;5056654;28;20558;-71
2021/11/24 10:23:22;;;;;;;10.27;6.67;;;;;;;;;;5070144;28;20511;-71
2021/11/24 10:25:50;;;;;;;11.60;7.87;;;;;;;;;;5058978;28;20785;-71
2021/11/24 10:28:29;;;;;;;9.43;7.67;;;;;;;;;;5058922;28;20756;-71
2021/11/24 10:30:59;;;;;;;9.80;6.37;;;;;;;;;;5060116;28;20496;-71
2021/11/24 10:33:30;;;;;;;11.93;7.40;;;;;;;;;;5060150;28;20500;-71
2021/11/24 10:36:15;;;;;;;15.30;7.87;;;;;;;;;;5061414;28;20468;-71
2021/11/24 10:38:44;;;;;;;16.83;9.53;;;;;;;;;;5058180;28;20512;-71
2021/11/24 10:41:12;;;;;;;11.00;5.70;;;;;;;;;;5059437;28;20461;-71
2021/11/24 10:43:45;;;;;;;14.67;9.07;;;;;;;;;;5062337;28;20451;-71
2021/11/24 10:46:17;;;;;;;11.47;7.17;;;;;;;;;;5076622;28;20465;-71
2021/11/24 10:49:00;;;;;;;13.00;7.13;;;;;;;;;;5058767;28;21119;-69
2021/11/24 10:51:36;;;;;;;13.03;8.77;;;;;;;;;;5063481;28;20518;-72
2021/11/24 10:54:12;;;;;;;10.27;6.37;;;;;;;;;;5059010;28;20456;-71
2021/11/24 10:56:58;;;;;;;8.70;5.10;;;;;;;;;;5060067;28;20502;-71
2021/11/24 10:59:31;;;;;;;14.27;6.70;;;;;;;;;;5058620;28;20484;-70
2021/11/24 11:02:30;;;;;;;9.20;6.73;;;;;;;;;;5061171;28;20935;-71
2021/11/24 11:05:11;;;;;;;10.43;6.33;;;;;;;;;;5060333;28;20561;-72
2021/11/24 11:07:46;;;;;;;12.00;5.97;;;;;;;;;;5075540;28;20527;-71
2021/11/24 11:10:17;;;;;;;13.27;8.37;;;;;;;;;;5068534;28;20460;-71
2021/11/24 11:12:57;;;;;;;12.60;8.20;;;;;;;;;;5071105;28;20464;-71
2021/11/24 11:15:29;;;;;;;10.47;6.57;;;;;;;;;;5077182;28;20880;-72
2021/11/24 11:18:01;;;;;;;12.83;7.47;;;;;;;;;;5076100;28;20487;-72
2021/11/24 11:20:34;;;;;;;11.73;7.03;;;;;;;;;;5078123;28;20480;-70
2021/11/24 11:23:23;;;;;;;10.57;7.07;;;;;;;;;;5075047;28;20471;-71
2021/11/24 11:25:53;;;;;;;12.90;8.57;;;;;;;;;;5068021;28;20561;-72
2021/11/24 11:28:24;;;;;;;8.50;6.77;;;;;;;;;;5061588;28;21047;-72
2021/11/24 11:30:53;;;;;;;13.43;7.77;;;;;;;;;;5071310;28;20453;-71
2021/11/24 11:33:27;;;;;;;10.27;6.67;;;;;;;;;;5071064;28;20449;-72
2021/11/24 11:36:00;;;;;;;13.13;7.60;;;;;;;;;;5058478;28;20457;-72
2021/11/24 11:38:28;;;;;;;10.40;6.90;;;;;;;;;;5063424;28;20631;-71
2021/11/24 11:40:56;;;;;;;14.50;10.07;;;;;;;;;;5073121;28;20872;-70
2021/11/24 11:43:25;;;;;;;10.07;7.07;;;;;;;;;;5078531;28;20453;-70
2021/11/24 11:45:53;;;;;;;12.47;7.60;;;;;;;;;;5063109;28;21041;-69
2021/11/24 11:48:29;;;;;;;11.43;7.57;;;;;;;;;;5076278;28;20457;-71
2021/11/24 11:51:03;;;;;;;14.67;8.73;;;;;;;;;;5068277;28;20750;-72
2021/11/24 11:53:55;;;;;;;16.03;8.53;;;;;;;;;;5058449;28;20465;-69
2021/11/24 11:56:42;;;;;;;13.77;9.03;;;;;;;;;;5068142;28;20445;-73
2021/11/24 11:59:17;;;;;;;24.50;16.00;;;;;;;;;;5074996;28;20489;-71
2021/11/24 12:01:57;;;;;;;13.47;8.57;;;;;;;;;;5065432;28;20451;-70
2021/11/24 12:04:47;;;;;;;9.93;6.77;;;;;;;;;;5079009;28;20484;-72
2021/11/24 12:07:22;;;;;;;11.50;7.60;;;;;;;;;;5059109;28;21057;-71
2021/11/24 12:10:08;;;;;;;11.27;8.20;;;;;;;;;;5071248;28;20469;-70
2021/11/24 12:12:37;;;;;;;11.30;8.43;;;;;;;;;;5058173;28;21043;-69
2021/11/24 12:15:11;;;;;;;12.33;8.50;;;;;;;;;;5057877;28;20468;-71
2021/11/24 12:17:55;;;;;;;11.40;8.30;;;;;;;;;;5058755;28;20543;-72
2021/11/24 12:20:41;;;;;;;13.43;8.00;;;;;;;;;;5074316;28;20477;-70
2021/11/24 12:23:18;;;;;;;11.47;8.40;;;;;;;;;;5074437;28;20787;-71
2021/11/24 12:25:49;;;;;;;11.80;9.43;;;;;;;;;;5073660;28;20448;-72
2021/11/24 12:28:20;;;;;;;12.47;7.63;;;;;;;;;;5055973;28;20461;-71
2021/11/24 12:31:05;;;;;;;9.40;7.10;;;;;;;;;;5067949;28;20528;-71
2021/11/24 12:33:35;;;;;;;8.80;6.23;;;;;;;;;;5073317;28;20448;-71
2021/11/24 12:36:07;;;;;;;7.20;5.40;;;;;;;;;;5064743;28;20815;-72
2021/11/24 12:38:38;;;;;;;8.77;6.57;;;;;;;;;;5061614;28;20482;-71
2021/11/24 12:41:07;;;;;;;11.30;6.97;;;;;;;;;;5060297;28;20491;-71
2021/11/24 12:43:37;;;;;;;7.23;5.50;;;;;;;;;;5072767;28;20466;-71
2021/11/24 12:46:08;;;;;;;9.57;6.13;;;;;;;;;;5058532;28;20510;-71
2021/11/24 12:48:43;;;;;;;8.37;6.00;;;;;;;;;;5059841;28;20928;-71
2021/11/24 12:51:20;;;;;;;9.97;7.63;;;;;;;;;;5070340;28;20448;-72
2021/11/24 12:53:57;;;;;;;7.73;6.10;;;;;;;;;;5058413;28;20456;-71
2021/11/24 12:56:26;;;;;;;7.07;4.20;;;;;;;;;;5055953;28;20461;-71
2021/11/24 12:58:55;;;;;;;6.40;4.03;;;;;;;;;;5061940;28;20477;-71
2021/11/24 13:01:25;;;;;;;7.57;6.03;;;;;;;;;;5059204;28;20453;-71
2021/11/24 13:03:58;;;;;;;7.80;5.83;;;;;;;;;;5058574;28;20464;-71
2021/11/24 13:06:27;;;;;;;8.37;5.43;;;;;;;;;;5056117;28;20935;-72
2021/11/24 13:09:04;;;;;;;8.20;5.57;;;;;;;;;;5055769;28;20469;-70
2021/11/24 13:11:35;;;;;;;7.30;4.27;;;;;;;;;;5065748;28;20949;-71
2021/11/24 13:14:03;;;;;;;6.83;2.60;;;;;;;;;;5071906;28;20558;-71
2021/11/24 13:16:33;;;;;;;3.90;3.50;;;;;;;;;;5060473;28;20468;-69
2021/11/24 13:19:04;;;;;;;3.67;2.80;;;;;;;;;;5058085;28;20542;-71
2021/11/24 13:21:33;;;;;;;5.67;3.93;;;;;;;;;;5062330;28;20477;-71
2021/11/24 13:24:07;;;;;;;5.67;2.23;;;;;;;;;;5067082;28;20452;-71
2021/11/24 13:26:38;;;;;;;3.17;2.23;;;;;;;;;;5064909;28;20758;-72
2021/11/24 13:29:13;;;;;;;3.70;2.00;;;;;;;;;;5060976;28;20468;-72
2021/11/24 13:31:41;;;;;;;5.20;2.80;;;;;;;;;;5056163;28;20584;-71
2021/11/24 13:34:09;;;;;;;3.97;2.10;;;;;;;;;;5056899;28;20481;-72
2021/11/24 13:36:45;;;;;;;7.53;5.20;;;;;;;;;;5073841;28;20872;-72
2021/11/24 13:39:15;;;;;;;6.27;4.83;;;;;;;;;;5062919;28;20473;-73
2021/11/24 13:41:47;;;;;;;6.70;5.00;;;;;;;;;;5061634;28;20469;-72
2021/11/24 13:44:31;;;;;;;3.20;2.30;;;;;;;;;;5059209;28;20468;-73
2021/11/24 13:46:59;;;;;;;4.73;3.80;;;;;;;;;;5059559;28;20465;-71
2021/11/24 13:49:27;;;;;;;2.40;2.10;;;;;;;;;;5056280;28;20915;-72
2021/11/24 13:52:02;;;;;;;6.93;3.13;;;;;;;;;;5060113;28;20456;-71
2021/11/24 13:54:32;;;;;;;5.30;3.03;;;;;;;;;;5060469;28;20772;-71
2021/11/24 13:57:06;;;;;;;3.20;2.73;;;;;;;;;;5074278;28;20492;-73
2021/11/24 13:59:45;;;;;;;4.73;3.87;;;;;;;;;;5072840;28;20919;-72
2021/11/24 14:02:18;;;;;;;3.67;2.37;;;;;;;;;;5057757;28;20468;-73
2021/11/24 14:04:47;;;;;;;4.80;4.00;;;;;;;;;;5055608;28;20475;-72
2021/11/24 14:07:16;;;;;;;2.57;1.63;;;;;;;;;;5055364;28;20911;-72
2021/11/24 14:09:47;;;;;;;2.50;1.70;;;;;;;;;;5068272;28;20468;-71
2021/11/24 14:12:22;;;;;;;2.37;1.67;;;;;;;;;;5060236;28;20884;-72
2021/11/24 14:14:58;;;;;;;3.00;1.67;;;;;;;;;;5071199;28;20459;-71
2021/11/24 14:17:36;;;;;;;3.90;2.80;;;;;;;;;;5060895;28;20460;-72
2021/11/24 14:20:06;;;;;;;3.40;1.97;;;;;;;;;;5076284;28;20549;-73
2021/11/24 14:25:29;;;;;;;2.40;1.67;;;;;;;;;;5016175;28;20454;-71
2021/11/24 14:33:30;;;;;;;4.27;2.80;;;;;;;;;;5059073;28;20536;-74
2021/11/24 14:36:01;;;;;;;3.20;2.13;;;;;;;;;;5054943;28;20499;-74
2021/11/24 14:38:58;;;;;;;3.00;2.10;;;;;;;;;;5066146;28;20508;-75
2021/11/24 14:41:27;;;;;;;4.10;2.07;;;;;;;;;;5074978;28;20502;-72
2021/11/24 14:43:55;;;;;;;4.47;3.03;;;;;;;;;;5066567;28;20762;-72
2021/11/24 14:46:23;;;;;;;4.47;2.10;;;;;;;;;;5058187;28;20453;-72
2021/11/24 14:48:51;;;;;;;3.80;2.50;;;;;;;;;;5054444;28;20453;-72
2021/11/24 14:51:22;;;;;;;3.00;1.93;;;;;;;;;;5055755;28;20483;-72
2021/11/24 14:53:50;;;;;;;3.73;1.70;;;;;;;;;;5064779;28;20450;-73
2021/11/24 14:56:20;;;;;;;2.37;1.47;;;;;;;;;;5069099;28;20517;-71
2021/11/24 14:59:04;;;;;;;3.57;2.00;;;;;;;;;;5071132;28;20437;-72
2021/11/24 15:01:38;;;;;;;2.37;1.40;;;;;;;;;;5055642;28;20492;-72
2021/11/24 15:04:10;;;;;;;4.37;1.63;;;;;;;;;;5056311;28;20465;-72
2021/11/24 15:06:45;;;;;;;3.10;1.57;;;;;;;;;;5060726;28;20489;-72
2021/11/24 15:09:13;;;;;;;2.27;1.40;;;;;;;;;;5063832;28;20467;-72